KCGZ/CGZ METAR and TAF weather

Enter ICAO airport designator
Station Type Date Time Source
KCGZ METAR 2019/12/11 16:56 UTC NOAA

KCGZ 111656Z AUTO 00000KT 10SM CLR 11/07 A3022 RMK AO2 SLP235 T01060072


Station Type Date Time Source
KCGZ Decoded METAR 2019/12/11 16:56 UTC NOAA

Casa Grande, Casa Grande Municipal Airport, AZ, United States (KCGZ) 32-57N 111-46W
Dec 11, 2019 - 11:56 AM EST / 2019.12.11 1656 UTC
Wind: Calm:0
Visibility: 10 mile(s):0
Sky conditions: clear
Temperature: 51.1 F (10.6 C)
Dew Point: 45.0 F (7.2 C)
Relative Humidity: 79%
Pressure (altimeter): 30.22 in. Hg (1023 hPa)
ob: KCGZ 111656Z AUTO 00000KT 10SM CLR 11/07 A3022 RMK AO2 SLP235 T01060072
cycle: 17

Station Type Date Time Source
KCGZ TAF UTC NOAA

Error!

Example: see airport list